Time;durP1;ratioP1;P1;durP2;ratioP2;P2;SDS_P1;SDS_P2;PMS_P1;PMS_P2;Temp;Humidity;BMP_temperature;BMP_pressure;BME280_temperature;BME280_humidity;BME280_pressure;Samples;Min_cycle;Max_cycle;Signal;HPM_P1;HPM_P2
2023/12/09 00:00:37;;;;;;;0.40;0.40;;;;;;;5.47;100.00;100939.19;5114241;28;20360;-47
2023/12/09 00:03:03;;;;;;;0.40;0.40;;;;;;;5.47;100.00;100931.50;5114887;28;20031;-49
2023/12/09 00:05:28;;;;;;;0.40;0.40;;;;;;;5.46;100.00;100927.19;5114607;28;20016;-50
2023/12/09 00:07:54;;;;;;;0.40;0.40;;;;;;;5.47;100.00;100922.97;5114047;28;20024;-51
2023/12/09 00:10:19;;;;;;;0.40;0.40;;;;;;;5.44;100.00;100928.81;5114394;28;20020;-51
2023/12/09 00:12:44;;;;;;;0.35;0.35;;;;;;;5.50;100.00;100929.13;5114495;28;20023;-51
2023/12/09 00:15:09;;;;;;;0.40;0.40;;;;;;;5.46;100.00;100927.19;5113366;28;20376;-52
2023/12/09 00:17:35;;;;;;;0.38;0.38;;;;;;;5.47;100.00;100925.53;5114596;28;20052;-51
2023/12/09 00:20:00;;;;;;;0.40;0.40;;;;;;;5.42;100.00;100920.16;5114419;28;20058;-49
2023/12/09 00:22:25;;;;;;;0.40;0.40;;;;;;;5.42;100.00;100931.28;5112764;28;20079;-49
2023/12/09 00:24:51;;;;;;;0.35;0.35;;;;;;;5.40;100.00;100930.31;5114323;28;20027;-50
2023/12/09 00:27:16;;;;;;;0.40;0.40;;;;;;;5.41;100.00;100924.41;5113983;28;20019;-51
2023/12/09 00:29:42;;;;;;;0.30;0.30;;;;;;;5.40;100.00;100929.47;5113374;28;20024;-51
2023/12/09 00:32:07;;;;;;;0.40;0.40;;;;;;;5.43;100.00;100943.25;5114169;28;20063;-52
2023/12/09 00:34:33;;;;;;;0.40;0.40;;;;;;;5.40;100.00;100932.00;5113985;28;20027;-50
2023/12/09 00:36:58;;;;;;;0.30;0.30;;;;;;;5.40;100.00;100927.75;5113472;28;20070;-51
2023/12/09 00:39:23;;;;;;;0.32;0.32;;;;;;;5.39;100.00;100926.00;5113743;28;20027;-50
2023/12/09 00:41:48;;;;;;;0.32;0.32;;;;;;;5.36;100.00;100925.84;5113962;28;20032;-51
2023/12/09 00:44:17;;;;;;;0.38;0.38;;;;;;;5.36;100.00;100920.75;5112755;28;20031;-50
2023/12/09 00:46:42;;;;;;;0.40;0.40;;;;;;;5.35;100.00;100933.44;5113409;28;20036;-52
2023/12/09 00:49:07;;;;;;;0.30;0.30;;;;;;;5.37;100.00;100929.28;5113216;28;20489;-50
2023/12/09 00:51:32;;;;;;;0.40;0.40;;;;;;;5.33;100.00;100929.94;5112311;28;20077;-51
2023/12/09 00:53:58;;;;;;;0.32;0.32;;;;;;;5.35;100.00;100923.22;5113032;28;20016;-49
2023/12/09 00:56:23;;;;;;;0.35;0.35;;;;;;;5.33;100.00;100932.47;5112782;28;20494;-52
2023/12/09 00:58:48;;;;;;;0.40;0.40;;;;;;;5.31;100.00;100934.06;5112090;28;20034;-51
2023/12/09 01:01:14;;;;;;;0.40;0.40;;;;;;;5.31;100.00;100927.28;5112849;28;20083;-51
2023/12/09 01:03:39;;;;;;;0.30;0.30;;;;;;;5.31;100.00;100916.19;5112793;28;20133;-50
2023/12/09 01:06:05;;;;;;;0.40;0.40;;;;;;;5.20;100.00;100919.09;5112194;28;20026;-50
2023/12/09 01:08:30;;;;;;;0.35;0.35;;;;;;;5.26;100.00;100916.81;5112613;28;20031;-51
2023/12/09 01:10:55;;;;;;;0.40;0.40;;;;;;;5.28;100.00;100928.00;5112157;28;20027;-49
2023/12/09 01:13:20;;;;;;;0.40;0.40;;;;;;;5.25;100.00;100927.88;5112337;28;20039;-51
2023/12/09 01:15:46;;;;;;;0.47;0.47;;;;;;;5.21;100.00;100920.81;5112596;28;20080;-51
2023/12/09 01:18:11;;;;;;;0.30;0.30;;;;;;;5.20;100.00;100919.09;5111830;28;20474;-51
2023/12/09 01:20:36;;;;;;;0.32;0.32;;;;;;;5.21;100.00;100913.16;5112499;28;20023;-50
2023/12/09 01:23:01;;;;;;;0.40;0.40;;;;;;;5.22;100.00;100912.34;5112717;28;20020;-51
2023/12/09 01:25:27;;;;;;;0.30;0.30;;;;;;;5.19;100.00;100918.97;5111359;28;20031;-51
2023/12/09 01:27:52;;;;;;;0.40;0.40;;;;;;;5.15;100.00;100915.41;5112386;28;20073;-50
2023/12/09 01:30:18;;;;;;;0.40;0.40;;;;;;;5.19;100.00;100922.44;5112391;28;20049;-50
2023/12/09 01:32:43;;;;;;;0.40;0.40;;;;;;;5.20;100.00;100913.06;5110562;28;20207;-51
2023/12/09 01:35:10;;;;;;;0.32;0.32;;;;;;;5.19;100.00;100917.31;5112630;28;20020;-50
2023/12/09 01:37:35;;;;;;;0.40;0.40;;;;;;;5.21;100.00;100914.84;5112484;28;20016;-51
2023/12/09 01:40:00;;;;;;;0.35;0.35;;;;;;;5.20;100.00;100919.09;5111610;28;20096;-52
2023/12/09 01:42:25;;;;;;;0.40;0.40;;;;;;;5.19;100.00;100916.41;5111957;28;20027;-50
2023/12/09 01:44:51;;;;;;;0.40;0.40;;;;;;;5.15;100.00;100920.50;5112339;28;20044;-48
2023/12/09 01:47:17;;;;;;;0.40;0.40;;;;;;;5.13;100.00;100922.09;5075116;28;1034028;-51
2023/12/09 01:49:42;;;;;;;0.40;0.40;;;;;;;5.12;100.00;100899.91;5113281;28;20040;-50
2023/12/09 01:52:08;;;;;;;0.40;0.40;;;;;;;5.14;100.00;100899.97;5113046;28;20023;-48
2023/12/09 01:54:33;;;;;;;0.40;0.40;;;;;;;5.07;100.00;100893.66;5111972;28;20118;-52
2023/12/09 01:56:59;;;;;;;0.40;0.40;;;;;;;5.03;100.00;100884.97;5112905;28;20028;-51
2023/12/09 01:59:24;;;;;;;0.32;0.32;;;;;;;4.99;100.00;100890.72;5112833;28;20031;-51
2023/12/09 02:01:51;;;;;;;0.30;0.30;;;;;;;5.00;100.00;100886.50;5112388;28;20103;-52
2023/12/09 02:04:17;;;;;;;0.40;0.40;;;;;;;4.88;100.00;100879.94;5112529;28;20035;-51
2023/12/09 02:06:42;;;;;;;0.40;0.40;;;;;;;4.84;100.00;100883.13;5112976;28;20284;-51
2023/12/09 02:09:09;;;;;;;0.40;0.40;;;;;;;4.81;100.00;100888.06;5112257;28;20081;-50
2023/12/09 02:11:59;;;;;;;0.40;0.40;;;;;;;4.81;100.00;100895.72;5112693;28;20378;-50
2023/12/09 02:14:38;;;;;;;0.40;0.40;;;;;;;4.77;100.00;100886.13;5112003;28;20032;-51
2023/12/09 02:17:10;;;;;;;0.40;0.40;;;;;;;4.77;100.00;100893.81;5113100;28;20059;-50
2023/12/09 02:19:36;;;;;;;0.40;0.40;;;;;;;4.75;100.00;100890.28;5112871;28;20099;-50
2023/12/09 02:22:06;;;;;;;0.40;0.40;;;;;;;4.74;100.00;100886.00;5112115;28;20471;-53
2023/12/09 02:24:33;;;;;;;0.40;0.40;;;;;;;4.75;100.00;100887.72;5112579;28;20028;-51
2023/12/09 02:27:08;;;;;;;0.40;0.40;;;;;;;4.71;100.00;100880.69;5112857;28;20023;-50
2023/12/09 02:29:54;;;;;;;0.40;0.40;;;;;;;4.67;100.00;100873.69;5111743;28;20075;-50
2023/12/09 02:32:23;;;;;;;0.40;0.40;;;;;;;4.67;100.00;100873.69;5112488;28;20031;-50
2023/12/09 02:34:51;;;;;;;0.30;0.30;;;;;;;4.64;100.00;100883.72;5112855;28;20020;-51
2023/12/09 02:37:18;;;;;;;0.38;0.38;;;;;;;4.61;100.00;100875.09;5111795;28;20019;-50
2023/12/09 02:39:44;;;;;;;0.40;0.40;;;;;;;4.59;100.00;100865.59;5112842;28;20103;-51
2023/12/09 02:42:10;;;;;;;0.40;0.40;;;;;;;4.63;100.00;100867.53;5112363;28;20099;-51
2023/12/09 02:44:36;;;;;;;0.40;0.40;;;;;;;4.65;100.00;100854.84;5113476;28;20103;-51
2023/12/09 02:47:02;;;;;;;0.43;0.43;;;;;;;4.66;100.00;100848.94;5115963;28;20039;-50
2023/12/09 02:49:27;;;;;;;0.30;0.30;;;;;;;4.63;100.00;100839.44;5115357;28;20032;-50
2023/12/09 02:51:52;;;;;;;0.22;0.22;;;;;;;4.68;100.00;100843.13;5116709;28;20027;-50
2023/12/09 02:54:18;;;;;;;0.38;0.38;;;;;;;4.68;100.00;100840.56;5115837;28;20047;-51
2023/12/09 02:56:43;;;;;;;0.40;0.40;;;;;;;4.72;100.00;100851.81;5115414;28;20080;-51
2023/12/09 02:59:09;;;;;;;0.40;0.40;;;;;;;4.70;100.00;100849.19;5116070;28;20027;-49
2023/12/09 03:01:34;;;;;;;0.40;0.40;;;;;;;4.73;100.00;100838.25;5115859;28;20023;-50
2023/12/09 03:04:00;;;;;;;0.40;0.40;;;;;;;4.71;100.00;100835.63;5115364;28;20066;-51
2023/12/09 03:06:25;;;;;;;0.30;0.30;;;;;;;4.70;100.00;100830.44;5115671;28;20036;-51
2023/12/09 03:08:50;;;;;;;0.30;0.30;;;;;;;4.68;100.00;100834.59;5116042;28;20399;-51
2023/12/09 03:11:15;;;;;;;0.40;0.40;;;;;;;4.68;100.00;100819.28;5114842;28;20015;-51
2023/12/09 03:13:41;;;;;;;0.38;0.38;;;;;;;4.67;100.00;100827.72;5115624;28;20032;-51
2023/12/09 03:16:07;;;;;;;0.40;0.40;;;;;;;4.67;100.00;100813.28;5115569;28;20039;-49
2023/12/09 03:18:32;;;;;;;0.40;0.40;;;;;;;4.70;100.00;100840.63;5114753;28;20019;-51
2023/12/09 03:20:57;;;;;;;0.40;0.40;;;;;;;4.71;100.00;100810.09;5115762;28;20142;-51
2023/12/09 03:23:22;;;;;;;0.40;0.40;;;;;;;4.70;100.00;100844.09;5115184;28;20163;-51
2023/12/09 03:25:48;;;;;;;0.40;0.40;;;;;;;4.71;100.00;100804.09;5114794;28;20486;-49
2023/12/09 03:28:13;;;;;;;0.40;0.40;;;;;;;4.73;100.00;100844.25;5115042;28;20038;-50
2023/12/09 03:30:38;;;;;;;0.40;0.40;;;;;;;4.73;100.00;100812.75;5115569;28;20027;-50
2023/12/09 03:33:03;;;;;;;0.40;0.40;;;;;;;4.73;100.00;100843.38;5114428;28;20030;-51
2023/12/09 03:35:29;;;;;;;0.40;0.40;;;;;;;4.76;100.00;100821.44;5114973;28;20028;-51
2023/12/09 03:37:54;;;;;;;0.40;0.40;;;;;;;4.79;100.00;100823.28;5115237;28;20035;-51
2023/12/09 03:40:19;;;;;;;0.40;0.40;;;;;;;4.77;100.00;100812.97;5114045;28;20031;-49
2023/12/09 03:42:45;;;;;;;0.40;0.40;;;;;;;4.79;100.00;100813.06;5115260;28;20023;-51
2023/12/09 03:45:10;;;;;;;0.38;0.38;;;;;;;4.82;100.00;100808.09;5114854;28;20378;-50
2023/12/09 03:47:36;;;;;;;0.40;0.40;;;;;;;4.81;100.00;100810.59;5114067;28;20059;-51
2023/12/09 03:50:02;;;;;;;0.40;0.40;;;;;;;4.85;100.00;100810.81;5115264;28;20027;-51
2023/12/09 03:52:27;;;;;;;0.40;0.40;;;;;;;4.82;100.00;100813.22;5114925;28;20020;-49
2023/12/09 03:54:53;;;;;;;0.50;0.50;;;;;;;4.81;100.00;100796.13;5114193;28;20096;-51
2023/12/09 03:57:18;;;;;;;0.40;0.40;;;;;;;4.85;100.00;100798.03;5114054;28;20016;-47
2023/12/09 03:59:43;;;;;;;0.40;0.40;;;;;;;4.81;100.00;100791.03;5114052;28;20089;-51
2023/12/09 04:02:09;;;;;;;0.40;0.40;;;;;;;4.78;100.00;100780.66;5114666;28;20487;-51
2023/12/09 04:04:38;;;;;;;0.40;0.40;;;;;;;4.78;100.00;100780.66;5114653;28;20035;-50
2023/12/09 04:07:04;;;;;;;0.40;0.40;;;;;;;4.77;100.00;100779.75;5114291;28;20092;-50
2023/12/09 04:09:29;;;;;;;0.30;0.30;;;;;;;4.72;100.00;100772.69;5114481;28;20031;-51
2023/12/09 04:11:55;;;;;;;0.40;0.40;;;;;;;4.70;100.00;100782.81;5114627;28;20028;-50
2023/12/09 04:14:20;;;;;;;0.40;0.40;;;;;;;4.70;100.00;100766.59;5113538;28;20523;-50
2023/12/09 04:16:46;;;;;;;0.40;0.40;;;;;;;4.70;100.00;100777.72;5114329;28;20035;-50
2023/12/09 04:19:11;;;;;;;0.40;0.40;;;;;;;4.73;100.00;100782.09;5114401;28;20023;-48
2023/12/09 04:21:36;;;;;;;0.40;0.40;;;;;;;4.69;100.00;100770.84;5113627;28;20031;-49
2023/12/09 04:24:02;;;;;;;0.32;0.32;;;;;;;4.69;100.00;100769.97;5114347;28;20049;-51
2023/12/09 04:26:28;;;;;;;0.40;0.40;;;;;;;4.68;100.00;100769.09;5113938;28;20474;-48
2023/12/09 04:28:53;;;;;;;0.40;0.40;;;;;;;4.71;100.00;100758.16;5113552;28;20053;-50
2023/12/09 04:31:18;;;;;;;0.40;0.40;;;;;;;4.70;100.00;100766.59;5113835;28;20047;-50
2023/12/09 04:33:44;;;;;;;0.38;0.38;;;;;;;4.74;100.00;100761.75;5114361;28;20417;-50
2023/12/09 04:36:10;;;;;;;0.30;0.30;;;;;;;4.75;100.00;100760.06;5113316;28;20023;-51
2023/12/09 04:38:36;;;;;;;0.40;0.40;;;;;;;4.76;100.00;100754.16;5114052;28;20360;-50
2023/12/09 04:41:01;;;;;;;0.30;0.30;;;;;;;4.76;100.00;100749.06;5114092;28;20031;-51
2023/12/09 04:43:27;;;;;;;0.40;0.40;;;;;;;4.74;100.00;100753.22;5112835;28;20020;-51
2023/12/09 04:45:52;;;;;;;0.38;0.38;;;;;;;4.74;100.00;100748.13;5113602;28;20028;-49
2023/12/09 04:48:18;;;;;;;0.40;0.40;;;;;;;4.67;100.00;100749.44;5113798;28;20095;-51
2023/12/09 04:50:43;;;;;;;0.40;0.40;;;;;;;4.74;100.00;100743.00;5112973;28;20028;-49
2023/12/09 04:53:09;;;;;;;0.30;0.30;;;;;;;4.72;100.00;100744.59;5113929;28;20023;-51
2023/12/09 04:55:34;;;;;;;0.38;0.38;;;;;;;4.74;100.00;100741.31;5113893;28;20023;-52
2023/12/09 04:58:00;;;;;;;0.40;0.40;;;;;;;4.70;100.00;100733.41;5113151;28;20035;-51
2023/12/09 05:00:26;;;;;;;0.40;0.40;;;;;;;4.71;100.00;100733.53;5113551;28;20038;-49
2023/12/09 05:02:52;;;;;;;0.40;0.40;;;;;;;4.70;100.00;100725.75;5113830;28;20074;-49
2023/12/09 05:05:17;;;;;;;0.40;0.40;;;;;;;4.63;100.00;100728.81;5112418;28;20451;-52
2023/12/09 05:07:43;;;;;;;0.30;0.30;;;;;;;4.65;100.00;100730.66;5113520;28;20106;-50
2023/12/09 05:10:12;;;;;;;0.40;0.40;;;;;;;4.62;100.00;100727.91;5112854;28;20083;-50
2023/12/09 05:12:38;;;;;;;0.30;0.30;;;;;;;4.65;100.00;100719.53;5113684;28;20024;-50
2023/12/09 05:15:03;;;;;;;0.32;0.32;;;;;;;4.63;100.00;100719.47;5113571;28;20031;-50
2023/12/09 05:17:29;;;;;;;0.35;0.35;;;;;;;4.64;100.00;100715.25;5112528;28;20447;-51
2023/12/09 05:19:54;;;;;;;0.30;0.30;;;;;;;4.65;100.00;100722.09;5113434;28;20019;-52
2023/12/09 05:22:21;;;;;;;0.40;0.40;;;;;;;4.66;100.00;100723.84;5113156;28;20024;-51
2023/12/09 05:24:47;;;;;;;0.40;0.40;;;;;;;4.63;100.00;100728.81;5112711;28;20032;-47
2023/12/09 05:27:12;;;;;;;0.40;0.40;;;;;;;4.61;100.00;100724.50;5112957;28;20026;-50
2023/12/09 05:29:38;;;;;;;0.40;0.40;;;;;;;4.63;100.00;100713.50;5113306;28;20062;-48
2023/12/09 05:32:04;;;;;;;0.40;0.40;;;;;;;4.59;100.00;100710.75;5112662;28;20028;-50
2023/12/09 05:34:29;;;;;;;0.40;0.40;;;;;;;4.61;100.00;100711.72;5112950;28;20024;-50
2023/12/09 05:36:54;;;;;;;0.40;0.40;;;;;;;4.65;100.00;100704.22;5113119;28;20114;-49
2023/12/09 05:39:19;;;;;;;0.40;0.40;;;;;;;4.61;100.00;100706.63;5112278;28;20024;-51
2023/12/09 05:41:45;;;;;;;0.30;0.30;;;;;;;4.65;100.00;100710.22;5113175;28;20020;-50
2023/12/09 05:44:10;;;;;;;0.30;0.30;;;;;;;4.66;100.00;100705.97;5112661;28;20081;-52
2023/12/09 05:46:36;;;;;;;0.40;0.40;;;;;;;4.68;100.00;100702.72;5112202;28;20041;-50
2023/12/09 05:49:02;;;;;;;0.40;0.40;;;;;;;4.69;100.00;100699.34;5113246;28;20120;-52
2023/12/09 05:51:27;;;;;;;0.40;0.40;;;;;;;4.70;100.00;100690.00;5112899;28;20055;-49
2023/12/09 05:53:53;;;;;;;0.40;0.40;;;;;;;4.68;100.00;100697.59;5112360;28;20477;-49
2023/12/09 05:56:18;;;;;;;0.40;0.40;;;;;;;4.68;100.00;100701.84;5112859;28;20034;-51
2023/12/09 05:58:43;;;;;;;0.40;0.40;;;;;;;4.71;100.00;100694.31;5112990;28;20043;-49
2023/12/09 06:01:09;;;;;;;0.32;0.32;;;;;;;4.71;100.00;100700.31;5112376;28;20479;-51
2023/12/09 06:03:34;;;;;;;0.30;0.30;;;;;;;4.67;100.00;100705.19;5112575;28;20459;-48
2023/12/09 06:05:59;;;;;;;0.30;0.30;;;;;;;4.67;100.00;100700.09;5112979;28;20126;-51
2023/12/09 06:08:24;;;;;;;0.40;0.40;;;;;;;4.69;100.00;100699.34;5111909;28;20031;-51
2023/12/09 06:10:51;;;;;;;0.30;0.30;;;;;;;4.72;100.00;100688.44;5112882;28;20028;-52
2023/12/09 06:13:16;;;;;;;0.40;0.40;;;;;;;4.73;100.00;100692.75;5112414;28;20114;-49
2023/12/09 06:15:41;;;;;;;0.40;0.40;;;;;;;4.72;100.00;100678.22;5112338;28;20099;-52
2023/12/09 06:18:07;;;;;;;0.40;0.40;;;;;;;4.71;100.00;100667.13;5113062;28;20031;-51
2023/12/09 06:20:32;;;;;;;0.40;0.40;;;;;;;4.68;100.00;100671.22;5115203;28;20024;-51
2023/12/09 06:22:58;;;;;;;0.40;0.40;;;;;;;4.66;100.00;100660.03;5116794;28;20028;-51
2023/12/09 06:25:23;;;;;;;0.40;0.40;;;;;;;4.66;100.00;100660.03;5116404;28;20027;-51
2023/12/09 06:27:48;;;;;;;0.40;0.40;;;;;;;4.65;100.00;100650.59;5115851;28;20310;-52
2023/12/09 06:30:14;;;;;;;0.40;0.40;;;;;;;4.66;100.00;100652.38;5116509;28;20030;-50
2023/12/09 06:32:39;;;;;;;0.40;0.40;;;;;;;4.63;100.00;100649.69;5116850;28;20031;-49
2023/12/09 06:35:04;;;;;;;0.40;0.40;;;;;;;4.64;100.00;100647.19;5115901;28;20374;-50
2023/12/09 06:37:30;;;;;;;0.30;0.30;;;;;;;4.63;100.00;100642.03;5116231;28;20035;-49
2023/12/09 06:39:55;;;;;;;0.30;0.30;;;;;;;4.61;100.00;100640.25;5116563;28;20020;-51
2023/12/09 06:42:20;;;;;;;0.30;0.30;;;;;;;4.61;100.00;100636.84;5115376;28;20406;-51
2023/12/09 06:44:46;;;;;;;0.40;0.40;;;;;;;4.59;100.00;100626.53;5116370;28;20056;-50
2023/12/09 06:47:11;;;;;;;0.40;0.40;;;;;;;4.58;100.00;100618.81;5115809;28;20043;-51
2023/12/09 06:49:36;;;;;;;0.40;0.40;;;;;;;4.58;100.00;100609.50;5115432;28;20024;-49
2023/12/09 06:52:02;;;;;;;0.40;0.40;;;;;;;4.58;100.00;100612.03;5116163;28;20038;-51
2023/12/09 06:54:27;;;;;;;0.30;0.30;;;;;;;4.58;100.00;100604.38;5115884;28;20027;-51
2023/12/09 06:56:52;;;;;;;0.40;0.40;;;;;;;4.59;100.00;100601.00;5115309;28;20054;-51
2023/12/09 06:59:17;;;;;;;0.40;0.40;;;;;;;4.61;100.00;100591.75;5115617;28;20023;-50
2023/12/09 07:01:43;;;;;;;0.40;0.40;;;;;;;4.59;100.00;100577.16;5116117;28;20099;-50
2023/12/09 07:04:09;;;;;;;0.30;0.30;;;;;;;4.58;100.00;100573.75;5115144;28;20028;-51
2023/12/09 07:06:35;;;;;;;0.40;0.40;;;;;;;4.57;100.00;100563.44;5115872;28;20031;-50
2023/12/09 07:09:00;;;;;;;0.40;0.40;;;;;;;4.57;100.00;100559.22;5115905;28;20027;-52
2023/12/09 07:11:26;;;;;;;0.35;0.35;;;;;;;4.52;100.00;100547.03;5114707;28;20020;-51
2023/12/09 07:13:52;;;;;;;0.40;0.40;;;;;;;4.54;100.00;100541.19;5114105;28;20056;-51
2023/12/09 07:16:18;;;;;;;0.45;0.45;;;;;;;4.53;100.00;100536.91;5095061;28;20066;-52
2023/12/09 07:18:47;;;;;;;0.40;0.40;;;;;;;4.53;100.00;100531.81;5094472;28;20024;-52
2023/12/09 07:21:13;;;;;;;0.40;0.40;;;;;;;4.59;100.00;100524.44;5094964;28;20047;-52
2023/12/09 07:23:39;;;;;;;0.40;0.40;;;;;;;4.63;100.00;100522.03;5094850;28;20028;-51
2023/12/09 07:26:04;;;;;;;0.40;0.40;;;;;;;4.65;100.00;100548.50;5094641;28;20054;-50
2023/12/09 07:28:30;;;;;;;0.40;0.40;;;;;;;4.67;100.00;100537.56;5094713;28;20032;-51
2023/12/09 07:30:55;;;;;;;0.40;0.40;;;;;;;4.69;100.00;100540.22;5094404;28;20021;-47
2023/12/09 07:33:21;;;;;;;0.40;0.40;;;;;;;4.73;100.00;100545.53;5094751;28;20036;-52
2023/12/09 07:35:46;;;;;;;0.40;0.40;;;;;;;4.75;100.00;100537.94;5095017;28;20149;-46
2023/12/09 07:38:11;;;;;;;0.40;0.40;;;;;;;4.77;100.00;100533.78;5093994;28;20028;-49
2023/12/09 07:40:37;;;;;;;0.40;0.40;;;;;;;4.80;100.00;100527.97;5094730;28;20109;-51
2023/12/09 07:43:02;;;;;;;0.40;0.40;;;;;;;4.82;100.00;100521.25;5094831;28;20032;-50
2023/12/09 07:45:27;;;;;;;0.38;0.38;;;;;;;4.86;100.00;100513.81;5093809;28;20352;-51
2023/12/09 07:47:53;;;;;;;0.40;0.40;;;;;;;4.91;100.00;100516.59;5094731;28;20048;-50
2023/12/09 07:50:18;;;;;;;0.30;0.30;;;;;;;4.91;100.00;100519.13;5094423;28;20032;-50
2023/12/09 07:52:43;;;;;;;0.35;0.35;;;;;;;4.97;100.00;100510.88;5093743;28;20020;-49
2023/12/09 07:55:09;;;;;;;0.40;0.40;;;;;;;4.99;100.00;100504.16;5094770;28;20035;-52
2023/12/09 07:57:34;;;;;;;0.40;0.40;;;;;;;4.98;100.00;100489.66;5094357;28;20027;-51
2023/12/09 08:00:00;;;;;;;0.40;0.40;;;;;;;5.00;100.00;100483.81;5093705;28;20035;-46
2023/12/09 08:02:25;;;;;;;0.30;0.30;;;;;;;5.04;100.00;100482.28;5094177;28;20020;-49
2023/12/09 08:04:50;;;;;;;0.30;0.30;;;;;;;5.13;100.00;100482.69;5094316;28;20035;-47
2023/12/09 08:07:16;;;;;;;0.40;0.40;;;;;;;5.14;100.00;100479.34;5093284;28;20107;-50
2023/12/09 08:09:41;;;;;;;0.40;0.40;;;;;;;5.20;100.00;100477.06;5094133;28;20020;-46
2023/12/09 08:12:06;;;;;;;0.30;0.30;;;;;;;5.24;100.00;100478.94;5094013;28;20438;-49
2023/12/09 08:14:32;;;;;;;0.35;0.35;;;;;;;5.27;100.00;100471.41;5093210;28;20039;-45
2023/12/09 08:16:57;;;;;;;0.30;0.30;;;;;;;5.33;100.00;100464.81;5094199;28;20533;-48
2023/12/09 08:19:23;;;;;;;0.38;0.38;;;;;;;5.39;100.00;100470.22;5093954;28;20414;-51
2023/12/09 08:21:48;;;;;;;0.30;0.30;;;;;;;5.40;100.00;100466.84;5093380;28;20103;-47
2023/12/09 08:24:13;;;;;;;0.30;0.30;;;;;;;5.46;100.00;100471.34;5093795;28;20537;-47
2023/12/09 08:26:40;;;;;;;0.30;0.30;;;;;;;5.49;100.00;100474.03;5093827;28;20028;-48
2023/12/09 08:29:05;;;;;;;0.40;0.40;;;;;;;5.51;100.00;100474.97;5093317;28;20032;-46
2023/12/09 08:31:30;;;;;;;0.30;0.30;;;;;;;5.55;100.00;100476.88;5093626;28;20093;-47
2023/12/09 08:33:56;;;;;;;0.32;0.32;;;;;;;5.56;100.00;100474.38;5093539;28;20024;-49
2023/12/09 08:36:22;;;;;;;0.40;0.40;;;;;;;5.58;100.00;100470.22;5092553;28;20066;-49
2023/12/09 08:38:47;;;;;;;0.28;0.28;;;;;;;5.61;100.00;100462.66;5093699;28;20081;-51
2023/12/09 08:41:13;;;;;;;0.30;0.30;;;;;;;5.61;100.00;100465.22;5092232;28;20024;-46
2023/12/09 08:43:38;;;;;;;0.40;0.40;;;;;;;5.70;100.00;100456.22;5092990;28;20537;-51
2023/12/09 08:46:04;;;;;;;0.30;0.30;;;;;;;5.71;100.00;100452.84;5093429;28;20028;-51
2023/12/09 08:48:29;;;;;;;0.40;0.40;;;;;;;5.71;100.00;100448.59;5092445;28;20423;-50
2023/12/09 08:50:54;;;;;;;0.30;0.30;;;;;;;5.75;100.00;100447.91;5093087;28;20077;-51
2023/12/09 08:53:19;;;;;;;0.30;0.30;;;;;;;5.79;100.00;100441.25;5093047;28;20035;-50
2023/12/09 08:55:45;;;;;;;0.30;0.30;;;;;;;5.80;100.00;100437.91;5092510;28;20069;-52
2023/12/09 08:58:10;;;;;;;0.30;0.30;;;;;;;5.83;100.00;100437.16;5092969;28;20376;-51
2023/12/09 09:00:35;;;;;;;0.30;0.30;;;;;;;5.86;100.00;100438.16;5093118;28;20020;-47
2023/12/09 09:03:03;;;;;;;0.40;0.40;;;;;;;5.88;100.00;100431.41;5092542;28;20031;-48
2023/12/09 09:05:28;;;;;;;0.30;0.30;;;;;;;5.91;100.00;100434.13;5092932;28;20529;-47
2023/12/09 09:07:53;;;;;;;0.40;0.40;;;;;;;5.98;100.00;100424.13;5093290;28;20032;-49
2023/12/09 09:10:19;;;;;;;0.30;0.30;;;;;;;5.98;100.00;100412.25;5092065;28;20523;-49
2023/12/09 09:12:45;;;;;;;0.30;0.30;;;;;;;6.01;100.00;100402.13;5093379;28;20057;-48
2023/12/09 09:15:11;;;;;;;0.30;0.30;;;;;;;6.03;100.00;100379.16;5092600;28;20475;-51
2023/12/09 09:17:36;;;;;;;0.40;0.40;;;;;;;6.05;100.00;100372.44;5092402;28;20101;-47
2023/12/09 09:20:03;;;;;;;0.30;0.30;;;;;;;6.07;100.00;100375.94;5093186;28;20047;-47
2023/12/09 09:22:30;;;;;;;0.30;0.30;;;;;;;6.09;100.00;100358.94;5092901;28;20069;-50
2023/12/09 09:24:55;;;;;;;0.40;0.40;;;;;;;6.11;100.00;100339.44;5092154;28;20473;-47
2023/12/09 09:27:21;;;;;;;0.32;0.32;;;;;;;6.11;100.00;100326.63;5092550;28;20024;-48
2023/12/09 09:29:46;;;;;;;0.40;0.40;;;;;;;6.13;100.00;100314.75;5092922;28;20479;-52
2023/12/09 09:32:11;;;;;;;0.30;0.30;;;;;;;6.16;100.00;100322.56;5091977;28;20032;-51
2023/12/09 09:34:36;;;;;;;0.40;0.40;;;;;;;6.16;100.00;100317.44;5092945;28;20034;-49
2023/12/09 09:37:02;;;;;;;0.30;0.30;;;;;;;6.17;100.00;100326.00;5092954;28;20074;-47
2023/12/09 09:39:27;;;;;;;0.30;0.30;;;;;;;6.17;100.00;100326.88;5091649;28;20058;-50
2023/12/09 09:42:26;;;;;;;0.30;0.30;;;;;;;6.24;100.00;100327.97;5092748;28;20471;-51
2023/12/09 09:45:08;;;;;;;0.35;0.35;;;;;;;6.28;100.00;100318.75;5092071;28;20043;-52
2023/12/09 09:47:37;;;;;;;0.32;0.32;;;;;;;6.29;100.00;100310.22;5092186;28;20055;-48
2023/12/09 09:50:10;;;;;;;0.30;0.30;;;;;;;6.34;100.00;100318.97;5092679;28;20032;-47
2023/12/09 09:52:40;;;;;;;0.30;0.30;;;;;;;6.37;100.00;100303.72;5091666;28;20141;-52
2023/12/09 09:55:09;;;;;;;0.30;0.30;;;;;;;6.41;100.00;100300.47;5095491;28;20030;-48
2023/12/09 09:57:34;;;;;;;0.30;0.30;;;;;;;6.42;100.00;100294.53;5096631;28;20035;-51
2023/12/09 10:00:00;;;;;;;0.30;0.30;;;;;;;6.45;100.00;100296.34;5096102;28;20024;-47
2023/12/09 10:02:27;;;;;;;0.30;0.30;;;;;;;6.53;100.00;100290.69;5096388;28;20047;-48
2023/12/09 10:04:53;;;;;;;0.30;0.30;;;;;;;6.56;100.00;100284.81;5096844;28;20031;-48
2023/12/09 10:07:19;;;;;;;0.30;0.30;;;;;;;6.58;100.00;100262.69;5095568;28;20529;-52
2023/12/09 10:09:44;;;;;;;0.20;0.20;;;;;;;6.58;100.00;100255.91;5096743;28;20024;-50
2023/12/09 10:12:09;;;;;;;0.30;0.30;;;;;;;6.62;100.00;100238.06;5096185;28;20086;-47
2023/12/09 10:14:35;;;;;;;0.30;0.30;;;;;;;6.65;100.00;100233.94;5095707;28;20032;-51
2023/12/09 10:17:00;;;;;;;0.30;0.30;;;;;;;6.67;100.00;100227.16;5096376;28;20533;-47
2023/12/09 10:19:26;;;;;;;0.40;0.40;;;;;;;6.70;100.00;100206.81;5096057;28;20020;-49
2023/12/09 10:21:51;;;;;;;0.30;0.30;;;;;;;6.73;100.00;100200.91;5095768;28;20074;-51
2023/12/09 10:24:16;;;;;;;0.30;0.30;;;;;;;6.75;100.00;100181.34;5096125;28;20487;-50
2023/12/09 10:26:42;;;;;;;0.38;0.38;;;;;;;6.82;100.00;100182.44;5095454;28;20028;-52
2023/12/09 10:29:08;;;;;;;0.30;0.30;;;;;;;6.79;100.00;100170.41;5096213;28;20081;-49
2023/12/09 10:31:35;;;;;;;0.30;0.30;;;;;;;6.83;100.00;100172.25;5095763;28;20383;-50
2023/12/09 10:34:02;;;;;;;0.30;0.30;;;;;;;6.84;100.00;100156.06;5095482;28;20020;-48
2023/12/09 10:36:29;;;;;;;0.30;0.30;;;;;;;6.87;100.00;100152.72;5095931;28;20032;-52
2023/12/09 10:38:56;;;;;;;0.30;0.30;;;;;;;6.91;100.00;100142.63;5096226;28;20102;-51
2023/12/09 10:41:22;;;;;;;0.28;0.28;;;;;;;6.92;100.00;100140.94;5095012;28;20513;-47
2023/12/09 10:43:48;;;;;;;0.30;0.30;;;;;;;6.93;100.00;100150.34;5095776;28;20551;-52
2023/12/09 10:46:13;;;;;;;0.38;0.38;;;;;;;6.95;100.00;100135.91;5095380;28;20131;-52
2023/12/09 10:48:41;;;;;;;0.30;0.30;;;;;;;6.96;100.00;100114.59;5095363;28;20024;-52
2023/12/09 10:51:07;;;;;;;0.25;0.25;;;;;;;6.95;100.00;100102.59;5096092;28;20024;-52
2023/12/09 10:53:32;;;;;;;0.30;0.30;;;;;;;6.92;100.00;100089.72;5095509;28;20077;-50
2023/12/09 10:55:58;;;;;;;0.30;0.30;;;;;;;6.88;100.00;100075.94;5095110;28;20103;-50
2023/12/09 10:58:24;;;;;;;0.30;0.30;;;;;;;6.87;100.00;100070.75;5095441;28;20499;-51
2023/12/09 11:00:50;;;;;;;0.30;0.30;;;;;;;6.80;100.00;100059.44;5095556;28;20026;-51
2023/12/09 11:03:17;;;;;;;0.30;0.30;;;;;;;6.80;100.00;100058.56;5094764;28;20024;-52
2023/12/09 11:05:46;;;;;;;0.30;0.30;;;;;;;6.77;100.00;100041.41;5095162;28;20039;-52
2023/12/09 11:08:12;;;;;;;0.30;0.30;;;;;;;6.79;100.00;100046.56;5095250;28;20020;-52
2023/12/09 11:10:39;;;;;;;0.35;0.35;;;;;;;6.82;100.00;100042.44;5094623;28;20455;-47
2023/12/09 11:13:05;;;;;;;0.30;0.30;;;;;;;6.80;100.00;100023.56;5095391;28;20020;-52
2023/12/09 11:15:32;;;;;;;0.30;0.30;;;;;;;6.80;100.00;100005.63;5094964;28;20051;-50
2023/12/09 11:18:08;;;;;;;0.30;0.30;;;;;;;6.80;100.00;100008.19;5094735;28;20023;-47